Time;durP1;ratioP1;P1;durP2;ratioP2;P2;SDS_P1;SDS_P2;PMS_P1;PMS_P2;Temp;Humidity;BMP_temperature;BMP_pressure;BME280_temperature;BME280_humidity;BME280_pressure;Samples;Min_cycle;Max_cycle;Signal;HPM_P1;HPM_P2
2024/01/30 00:01:51;;;;;;;8.10;3.67;;;5.30;98.40;;;;;;4981322;28;20033;-71
2024/01/30 00:04:17;;;;;;;10.55;3.53;;;5.30;98.50;;;;;;4980385;28;20026;-71
2024/01/30 00:06:46;;;;;;;6.63;3.00;;;5.30;98.40;;;;;;4980813;28;20026;-71
2024/01/30 00:09:12;;;;;;;7.68;3.60;;;5.20;98.40;;;;;;4980394;28;20084;-71
2024/01/30 00:11:38;;;;;;;9.25;3.75;;;5.20;98.60;;;;;;4981558;28;20026;-71
2024/01/30 00:14:04;;;;;;;7.65;3.50;;;5.20;98.70;;;;;;4980755;28;20469;-70
2024/01/30 00:16:30;;;;;;;7.47;3.30;;;5.20;98.80;;;;;;4977267;28;20577;-71
2024/01/30 00:18:56;;;;;;;6.10;3.47;;;5.10;98.80;;;;;;4980104;28;20041;-71
2024/01/30 00:21:21;;;;;;;7.35;3.67;;;5.10;98.80;;;;;;4980084;28;20042;-71
2024/01/30 00:23:47;;;;;;;7.75;3.58;;;5.10;99.00;;;;;;4978473;28;20037;-71
2024/01/30 00:26:14;;;;;;;5.28;3.17;;;5.10;99.30;;;;;;4981860;28;20506;-70
2024/01/30 00:28:43;;;;;;;10.15;3.45;;;5.10;99.10;;;;;;4980778;28;20030;-70
2024/01/30 00:31:12;;;;;;;6.85;3.55;;;5.10;99.00;;;;;;4976767;28;20034;-71
2024/01/30 00:33:40;;;;;;;6.78;3.47;;;5.10;99.00;;;;;;4980879;28;20478;-71
2024/01/30 00:36:07;;;;;;;4.70;2.90;;;5.00;98.90;;;;;;4978751;28;20526;-71
2024/01/30 00:38:33;;;;;;;6.95;3.33;;;5.00;99.00;;;;;;4980767;28;20193;-70
2024/01/30 00:40:59;;;;;;;8.10;3.45;;;5.00;99.10;;;;;;4979091;28;20561;-71
2024/01/30 00:43:25;;;;;;;5.97;3.30;;;5.00;99.30;;;;;;4980664;28;20038;-71
2024/01/30 00:45:54;;;;;;;6.20;3.60;;;5.00;99.30;;;;;;4980271;28;20026;-71
2024/01/30 00:48:20;;;;;;;10.13;3.50;;;5.00;99.40;;;;;;4977802;28;20838;-72
2024/01/30 00:50:46;;;;;;;7.65;3.42;;;4.90;99.20;;;;;;4979463;28;20117;-72
2024/01/30 00:53:12;;;;;;;4.72;3.17;;;4.90;99.20;;;;;;4980222;28;20053;-72
2024/01/30 00:55:38;;;;;;;5.75;3.50;;;4.90;99.40;;;;;;4979175;28;20069;-72
2024/01/30 00:58:04;;;;;;;8.57;3.92;;;5.00;99.30;;;;;;4980868;28;20077;-72
2024/01/30 01:00:31;;;;;;;5.45;2.90;;;4.90;99.10;;;;;;4978368;28;20438;-71
2024/01/30 01:02:58;;;;;;;9.43;3.60;;;4.90;99.40;;;;;;4978369;28;20141;-72
2024/01/30 01:05:24;;;;;;;7.75;3.42;;;4.90;99.40;;;;;;4981206;28;20038;-72
2024/01/30 01:07:49;;;;;;;6.68;3.80;;;4.90;99.30;;;;;;4977103;28;20041;-72
2024/01/30 01:10:17;;;;;;;8.00;3.85;;;4.90;99.50;;;;;;4981886;28;20041;-72
2024/01/30 01:12:43;;;;;;;5.65;3.40;;;4.90;99.50;;;;;;4979220;28;20092;-72
2024/01/30 01:15:09;;;;;;;6.10;3.70;;;4.90;99.50;;;;;;4977412;28;20042;-72
2024/01/30 01:17:38;;;;;;;7.50;3.47;;;4.80;99.60;;;;;;4981352;28;20030;-72
2024/01/30 01:20:06;;;;;;;9.73;4.32;;;4.80;99.80;;;;;;4978219;28;20509;-72
2024/01/30 01:22:32;;;;;;;6.18;3.30;;;4.80;99.90;;;;;;4980459;28;20038;-72
2024/01/30 01:24:59;;;;;;;8.13;4.03;;;4.70;99.90;;;;;;4980234;28;20038;-71
2024/01/30 01:27:25;;;;;;;6.97;3.65;;;4.80;99.90;;;;;;4978822;28;20026;-72
2024/01/30 01:29:51;;;;;;;8.07;3.30;;;4.80;99.90;;;;;;4980608;28;20037;-72
2024/01/30 01:32:17;;;;;;;6.55;3.40;;;4.80;99.90;;;;;;4980879;28;20545;-72
2024/01/30 01:34:43;;;;;;;6.82;3.55;;;4.80;99.90;;;;;;4980394;28;20834;-72
2024/01/30 01:37:09;;;;;;;9.38;4.22;;;4.80;99.90;;;;;;4976025;28;20030;-71
2024/01/30 01:39:35;;;;;;;6.13;3.22;;;4.90;99.90;;;;;;4979017;28;20108;-72
2024/01/30 01:42:01;;;;;;;7.88;3.50;;;4.80;99.90;;;;;;4979486;28;20034;-72
2024/01/30 01:44:27;;;;;;;7.60;3.70;;;4.80;99.90;;;;;;4978245;28;20045;-72
2024/01/30 01:46:54;;;;;;;7.95;3.42;;;4.80;99.90;;;;;;4977690;28;20768;-72
2024/01/30 01:49:21;;;;;;;7.30;3.50;;;4.90;99.90;;;;;;4979503;28;20030;-71
2024/01/30 01:51:48;;;;;;;7.10;3.95;;;4.80;99.90;;;;;;4977649;28;20038;-72
2024/01/30 01:54:15;;;;;;;6.78;3.30;;;4.80;99.90;;;;;;4980802;28;20034;-72
2024/01/30 01:56:43;;;;;;;6.60;3.80;;;4.80;99.90;;;;;;4979408;28;20100;-72
2024/01/30 01:59:09;;;;;;;7.28;3.50;;;4.80;99.90;;;;;;4978627;28;20022;-72
2024/01/30 02:01:36;;;;;;;7.90;4.38;;;4.90;99.90;;;;;;4979103;28;20096;-72
2024/01/30 02:04:02;;;;;;;7.30;3.88;;;4.80;99.90;;;;;;4976578;28;20035;-71
2024/01/30 02:06:29;;;;;;;8.13;3.33;;;4.80;99.90;;;;;;4979919;28;20536;-71
2024/01/30 02:08:55;;;;;;;5.70;3.40;;;4.80;99.90;;;;;;4979005;28;20030;-72
2024/01/30 02:11:22;;;;;;;6.20;3.38;;;4.80;99.90;;;;;;4982363;28;20121;-72
2024/01/30 02:13:49;;;;;;;8.02;3.72;;;4.80;99.90;;;;;;4984639;28;20485;-72
2024/01/30 02:16:14;;;;;;;6.45;3.28;;;4.80;99.90;;;;;;4978754;28;20037;-72
2024/01/30 02:18:45;;;;;;;9.13;3.80;;;4.70;99.90;;;;;;4984737;28;20031;-72
2024/01/30 02:21:11;;;;;;;7.38;3.38;;;4.70;99.90;;;;;;4981404;28;20046;-72
2024/01/30 02:23:39;;;;;;;8.32;3.40;;;4.70;99.90;;;;;;4983198;28;20026;-72
2024/01/30 02:26:05;;;;;;;9.18;4.03;;;4.60;99.90;;;;;;4982657;28;20117;-72
2024/01/30 02:28:31;;;;;;;6.95;3.78;;;4.60;99.90;;;;;;4981121;28;20113;-72
2024/01/30 02:30:56;;;;;;;6.60;3.35;;;4.60;99.90;;;;;;4983166;28;20813;-72
2024/01/30 02:33:22;;;;;;;5.55;2.80;;;4.60;99.90;;;;;;4980742;28;20070;-72
2024/01/30 02:35:48;;;;;;;8.60;3.50;;;4.50;99.90;;;;;;4979241;28;20027;-72
2024/01/30 02:38:15;;;;;;;7.85;3.78;;;4.50;99.90;;;;;;4982028;28;20026;-72
2024/01/30 02:40:41;;;;;;;6.63;3.58;;;4.50;99.90;;;;;;4980620;28;20113;-72
2024/01/30 02:43:07;;;;;;;6.65;3.97;;;4.50;99.90;;;;;;4983178;28;20366;-72
2024/01/30 02:45:33;;;;;;;9.13;3.97;;;4.50;99.90;;;;;;4982505;28;20759;-72
2024/01/30 02:47:58;;;;;;;7.45;3.85;;;4.50;99.90;;;;;;4980515;28;20030;-72
2024/01/30 02:50:24;;;;;;;5.55;3.47;;;4.50;99.90;;;;;;4983108;28;20026;-72
2024/01/30 02:52:50;;;;;;;9.32;4.00;;;4.50;99.90;;;;;;4981288;28;20034;-72
2024/01/30 02:55:17;;;;;;;8.77;4.03;;;4.50;99.90;;;;;;4982637;28;20065;-72
2024/01/30 02:57:43;;;;;;;7.95;4.05;;;4.60;99.90;;;;;;4980747;28;20109;-72
2024/01/30 03:00:10;;;;;;;7.97;4.03;;;4.50;99.90;;;;;;4978682;28;20030;-67
2024/01/30 03:02:36;;;;;;;8.88;4.53;;;4.50;99.90;;;;;;4981573;28;20034;-67
2024/01/30 03:05:03;;;;;;;6.30;3.63;;;4.60;99.90;;;;;;4978938;28;20030;-66
2024/01/30 03:07:29;;;;;;;7.35;4.10;;;4.50;99.90;;;;;;4981459;28;20034;-67
2024/01/30 03:09:55;;;;;;;6.93;3.47;;;4.60;99.90;;;;;;4980777;28;20049;-67
2024/01/30 03:12:22;;;;;;;7.70;4.00;;;4.60;99.90;;;;;;4979871;28;20477;-67
2024/01/30 03:14:49;;;;;;;6.85;3.85;;;4.50;99.90;;;;;;4982808;28;20022;-67
2024/01/30 03:17:15;;;;;;;7.97;3.92;;;4.50;99.90;;;;;;4978914;28;20039;-67
2024/01/30 03:19:41;;;;;;;9.57;4.30;;;4.50;99.90;;;;;;4981022;28;20034;-67
2024/01/30 03:22:07;;;;;;;7.97;4.35;;;4.60;99.90;;;;;;4979529;28;20117;-67
2024/01/30 03:24:32;;;;;;;6.43;3.10;;;4.60;99.90;;;;;;4977617;28;20096;-67
2024/01/30 03:26:58;;;;;;;11.63;4.22;;;4.50;99.90;;;;;;4982361;28;20054;-67
2024/01/30 03:29:24;;;;;;;7.90;4.65;;;4.50;99.90;;;;;;4979817;28;20095;-67
2024/01/30 03:31:49;;;;;;;10.55;4.22;;;4.40;99.90;;;;;;4978268;28;20054;-67
2024/01/30 03:34:15;;;;;;;7.03;3.65;;;4.40;99.90;;;;;;4980998;28;20031;-67
2024/01/30 03:36:41;;;;;;;7.65;3.90;;;4.40;99.90;;;;;;4978962;28;20042;-67
2024/01/30 03:39:07;;;;;;;7.80;3.60;;;4.40;99.90;;;;;;4981761;28;20029;-67
2024/01/30 03:41:33;;;;;;;8.77;4.50;;;4.40;99.90;;;;;;4981703;28;20034;-67
2024/01/30 03:43:58;;;;;;;5.97;3.63;;;4.40;99.90;;;;;;4978364;28;20065;-72
2024/01/30 03:46:24;;;;;;;7.50;4.15;;;4.40;99.90;;;;;;4982021;28;20545;-72
2024/01/30 03:48:50;;;;;;;6.50;3.85;;;4.40;99.90;;;;;;4980210;28;20054;-72
2024/01/30 03:51:16;;;;;;;8.45;4.57;;;4.40;99.90;;;;;;4981034;28;20041;-72
2024/01/30 03:53:48;;;;;;;8.15;4.07;;;4.40;99.90;;;;;;4980330;28;20025;-72
2024/01/30 03:56:14;;;;;;;8.27;4.25;;;4.30;99.90;;;;;;4977306;28;20049;-72
2024/01/30 03:58:40;;;;;;;9.52;4.38;;;4.30;99.90;;;;;;4982452;28;21168;-67
2024/01/30 04:01:05;;;;;;;6.13;3.70;;;4.20;99.90;;;;;;4977784;28;20035;-66
2024/01/30 04:03:31;;;;;;;6.05;3.78;;;4.20;99.90;;;;;;4981242;28;20038;-73
2024/01/30 04:05:57;;;;;;;6.90;4.13;;;4.20;99.90;;;;;;4979024;28;20040;-72
2024/01/30 04:08:23;;;;;;;10.00;4.50;;;4.20;99.90;;;;;;4977865;28;20141;-72
2024/01/30 04:10:48;;;;;;;7.18;4.25;;;4.20;99.90;;;;;;4982670;28;20041;-72
2024/01/30 04:13:14;;;;;;;8.45;4.03;;;4.20;99.90;;;;;;4981198;28;20031;-72
2024/01/30 04:15:40;;;;;;;8.82;3.90;;;4.30;99.90;;;;;;4979536;28;20034;-72
2024/01/30 04:18:06;;;;;;;6.18;3.78;;;4.30;99.90;;;;;;4977964;28;20062;-73
2024/01/30 04:20:32;;;;;;;7.10;3.70;;;4.20;99.90;;;;;;4978989;28;20040;-73
2024/01/30 04:22:58;;;;;;;7.68;3.95;;;4.30;99.90;;;;;;4981927;28;20033;-72
2024/01/30 04:25:23;;;;;;;8.57;3.58;;;4.30;99.90;;;;;;4978901;28;20443;-72
2024/01/30 04:27:49;;;;;;;8.75;3.65;;;4.30;99.90;;;;;;4977736;28;20034;-67
2024/01/30 04:30:15;;;;;;;7.20;3.72;;;4.30;99.90;;;;;;4978840;28;20088;-67
2024/01/30 04:32:41;;;;;;;7.78;4.20;;;4.20;99.90;;;;;;4977236;28;20112;-67
2024/01/30 04:35:07;;;;;;;8.82;4.32;;;4.20;99.90;;;;;;4980253;28;20060;-67
2024/01/30 04:37:33;;;;;;;6.10;3.85;;;4.20;99.90;;;;;;4979741;28;20042;-67
2024/01/30 04:39:58;;;;;;;7.63;3.55;;;4.20;99.90;;;;;;4977041;28;20035;-67
2024/01/30 04:42:24;;;;;;;10.70;3.70;;;4.10;99.90;;;;;;4981110;28;20034;-67
2024/01/30 04:44:50;;;;;;;7.80;3.70;;;4.10;99.90;;;;;;4979377;28;20037;-67
2024/01/30 04:47:16;;;;;;;7.47;4.35;;;4.10;99.90;;;;;;4981641;28;20026;-67
2024/01/30 04:49:42;;;;;;;8.13;4.03;;;4.00;99.90;;;;;;4980172;28;20058;-67
2024/01/30 04:52:08;;;;;;;8.85;4.25;;;4.00;99.90;;;;;;4976774;28;20113;-67
2024/01/30 04:54:35;;;;;;;7.65;4.20;;;4.00;99.90;;;;;;4981884;28;20045;-67
2024/01/30 04:57:01;;;;;;;6.43;3.42;;;4.00;99.90;;;;;;4976864;28;20149;-67
2024/01/30 04:59:27;;;;;;;6.68;3.78;;;3.90;99.90;;;;;;4978457;28;20129;-67
2024/01/30 05:01:53;;;;;;;7.05;3.80;;;3.90;99.90;;;;;;4979111;28;20121;-67
2024/01/30 05:04:19;;;;;;;6.60;3.60;;;3.90;99.90;;;;;;4977484;28;20039;-67
2024/01/30 05:06:45;;;;;;;7.90;3.90;;;3.90;99.90;;;;;;4980536;28;20043;-66
2024/01/30 05:09:11;;;;;;;8.13;4.30;;;3.90;99.90;;;;;;4977382;28;20041;-67
2024/01/30 05:11:40;;;;;;;8.60;4.30;;;3.90;99.90;;;;;;4976825;28;20034;-67
2024/01/30 05:14:07;;;;;;;11.52;4.53;;;3.80;99.90;;;;;;4978421;28;20027;-67
2024/01/30 05:16:33;;;;;;;8.20;4.07;;;3.80;99.90;;;;;;4978060;28;20506;-67
2024/01/30 05:18:59;;;;;;;7.07;3.97;;;3.90;99.90;;;;;;4978146;28;20129;-67
2024/01/30 05:21:25;;;;;;;7.00;3.60;;;3.80;99.90;;;;;;4977778;28;20031;-67
2024/01/30 05:23:50;;;;;;;8.20;3.90;;;3.90;99.90;;;;;;4976332;28;20410;-67
2024/01/30 05:26:16;;;;;;;9.30;3.97;;;3.90;99.90;;;;;;4981305;28;20521;-67
2024/01/30 05:28:44;;;;;;;5.47;3.38;;;3.90;99.90;;;;;;4976522;28;20058;-67
2024/01/30 05:31:10;;;;;;;7.43;3.72;;;4.00;99.90;;;;;;4980504;28;20044;-67
2024/01/30 05:33:36;;;;;;;7.95;3.80;;;4.00;99.90;;;;;;4979294;28;20564;-67
2024/01/30 05:36:02;;;;;;;11.18;3.67;;;4.00;99.90;;;;;;4975248;28;20038;-67
2024/01/30 05:38:28;;;;;;;8.50;3.88;;;4.00;99.90;;;;;;4980321;28;20046;-67
2024/01/30 05:40:55;;;;;;;9.32;4.13;;;4.00;99.90;;;;;;4977929;28;20040;-67
2024/01/30 05:43:20;;;;;;;6.78;3.63;;;4.00;99.90;;;;;;4980431;28;20034;-67
2024/01/30 05:45:46;;;;;;;8.88;3.88;;;4.00;99.90;;;;;;4984471;28;20038;-67
2024/01/30 05:48:12;;;;;;;9.52;4.30;;;4.00;99.90;;;;;;4978851;28;20037;-67
2024/01/30 05:50:37;;;;;;;9.10;3.70;;;4.00;99.90;;;;;;4982659;28;20704;-67
2024/01/30 05:53:03;;;;;;;6.88;3.90;;;4.00;99.90;;;;;;4981683;28;20579;-67
2024/01/30 05:55:29;;;;;;;6.60;3.78;;;4.00;99.90;;;;;;4982401;28;20034;-67
2024/01/30 05:57:55;;;;;;;7.72;4.13;;;4.10;99.90;;;;;;4984371;28;20057;-67
2024/01/30 06:00:21;;;;;;;9.20;3.85;;;4.10;99.90;;;;;;4981262;28;20037;-67
2024/01/30 06:02:46;;;;;;;6.78;4.25;;;4.10;99.90;;;;;;4983689;28;20030;-72
2024/01/30 06:05:12;;;;;;;11.45;4.20;;;4.10;99.90;;;;;;4981944;28;20831;-72
2024/01/30 06:07:38;;;;;;;6.47;3.17;;;4.10;99.90;;;;;;4982427;28;20498;-72
2024/01/30 06:10:04;;;;;;;5.55;3.42;;;4.10;99.90;;;;;;4983062;28;20703;-72
2024/01/30 06:12:30;;;;;;;8.57;3.58;;;4.10;99.90;;;;;;4981419;28;20015;-72
2024/01/30 06:14:56;;;;;;;6.75;3.63;;;4.10;99.90;;;;;;4982760;28;20103;-72
2024/01/30 06:17:25;;;;;;;7.40;4.15;;;4.10;99.90;;;;;;4981204;28;20066;-72
2024/01/30 06:19:51;;;;;;;9.40;3.97;;;4.00;99.90;;;;;;4980801;28;20034;-72
2024/01/30 06:22:17;;;;;;;11.25;3.90;;;4.10;99.90;;;;;;4984318;28;20493;-72
2024/01/30 06:24:44;;;;;;;8.18;3.55;;;4.10;99.90;;;;;;4981792;28;20124;-72
2024/01/30 06:27:10;;;;;;;9.18;4.18;;;4.10;99.90;;;;;;4983241;28;20038;-72
2024/01/30 06:29:36;;;;;;;6.78;3.47;;;4.20;99.90;;;;;;4981871;28;20065;-72
2024/01/30 06:32:02;;;;;;;7.75;3.65;;;4.10;99.90;;;;;;4979604;28;20116;-72
2024/01/30 06:34:29;;;;;;;8.05;3.53;;;4.20;99.90;;;;;;4982608;28;20034;-72
2024/01/30 06:36:54;;;;;;;8.50;4.00;;;4.20;99.90;;;;;;4979999;28;20524;-72
2024/01/30 06:39:20;;;;;;;8.20;3.58;;;4.20;99.90;;;;;;4981078;28;20117;-72
2024/01/30 06:41:46;;;;;;;7.57;4.35;;;4.20;99.90;;;;;;4983399;28;20084;-72
2024/01/30 06:44:12;;;;;;;7.05;3.70;;;4.30;99.90;;;;;;4978525;28;20034;-72
2024/01/30 06:46:38;;;;;;;6.13;3.58;;;4.40;99.90;;;;;;4982151;28;20038;-72
2024/01/30 06:49:04;;;;;;;7.05;3.40;;;4.40;99.90;;;;;;4981494;28;20039;-73
2024/01/30 06:51:31;;;;;;;8.80;4.10;;;4.40;99.90;;;;;;4983047;28;20092;-72
2024/01/30 06:53:57;;;;;;;6.60;3.60;;;4.40;99.90;;;;;;4982509;28;20113;-66
2024/01/30 06:56:23;;;;;;;7.15;3.47;;;4.40;99.90;;;;;;4978443;28;20516;-66
2024/01/30 06:58:52;;;;;;;7.20;3.53;;;4.50;99.90;;;;;;4982266;28;20038;-66
2024/01/30 07:01:18;;;;;;;6.30;3.50;;;4.50;99.90;;;;;;4982333;28;20121;-66
2024/01/30 07:03:43;;;;;;;7.20;4.10;;;4.50;99.90;;;;;;4983139;28;20034;-66
2024/01/30 07:06:13;;;;;;;5.88;3.88;;;4.60;99.90;;;;;;4981389;28;20410;-66
2024/01/30 07:08:39;;;;;;;6.70;3.58;;;4.60;99.90;;;;;;4979706;28;20030;-66
2024/01/30 07:11:07;;;;;;;7.95;4.22;;;4.70;99.90;;;;;;4982626;28;20034;-66
2024/01/30 07:13:35;;;;;;;7.13;3.70;;;4.70;99.90;;;;;;4959488;28;20445;-66
2024/01/30 07:16:01;;;;;;;6.03;3.90;;;4.70;99.90;;;;;;4980814;28;20034;-66
2024/01/30 07:18:26;;;;;;;7.00;3.70;;;4.80;99.90;;;;;;4980398;28;20101;-66
2024/01/30 07:20:52;;;;;;;8.50;4.18;;;4.80;99.90;;;;;;4977648;28;20042;-66
2024/01/30 07:23:18;;;;;;;10.07;4.03;;;4.80;99.90;;;;;;4979488;28;20045;-66
2024/01/30 07:25:48;;;;;;;7.05;3.85;;;4.90;99.90;;;;;;4978231;28;20035;-66
2024/01/30 07:28:16;;;;;;;5.38;3.58;;;4.90;99.90;;;;;;4977573;28;20554;-66
2024/01/30 07:30:43;;;;;;;5.47;3.70;;;4.90;99.90;;;;;;4981911;28;20129;-66
2024/01/30 07:33:09;;;;;;;8.60;3.85;;;5.00;99.90;;;;;;4979577;28;20030;-66
2024/01/30 07:35:35;;;;;;;5.93;3.60;;;5.00;99.90;;;;;;4982540;28;20030;-64
2024/01/30 07:38:01;;;;;;;8.85;4.20;;;5.10;99.90;;;;;;4978861;28;20394;-65
2024/01/30 07:40:27;;;;;;;5.30;3.80;;;5.10;99.90;;;;;;4967040;28;20034;-70
2024/01/30 07:42:53;;;;;;;9.38;4.47;;;5.20;99.90;;;;;;4982774;28;20427;-72
2024/01/30 07:45:24;;;;;;;6.63;3.50;;;5.20;99.90;;;;;;4976349;28;20060;-73
2024/01/30 07:47:50;;;;;;;6.90;4.57;;;5.20;99.90;;;;;;4979498;28;20030;-72
2024/01/30 07:50:16;;;;;;;8.63;3.85;;;5.30;99.90;;;;;;4970742;28;20406;-73
2024/01/30 07:52:45;;;;;;;7.68;3.58;;;5.30;99.90;;;;;;4983042;28;20033;-72
2024/01/30 07:55:12;;;;;;;9.30;3.60;;;5.40;99.90;;;;;;4984689;28;20034;-73
2024/01/30 07:57:41;;;;;;;7.07;3.70;;;5.40;99.90;;;;;;4978902;28;20697;-73
2024/01/30 08:00:07;;;;;;;7.50;3.50;;;5.50;99.90;;;;;;4980780;28;20463;-73
2024/01/30 08:02:34;;;;;;;8.02;3.55;;;5.50;99.90;;;;;;4982233;28;20064;-73
2024/01/30 08:05:00;;;;;;;9.18;4.50;;;5.60;99.90;;;;;;4977839;28;20105;-72
2024/01/30 08:07:25;;;;;;;8.35;3.33;;;5.70;99.90;;;;;;4980426;28;20682;-67
2024/01/30 08:09:51;;;;;;;8.35;3.88;;;5.70;99.90;;;;;;4977648;28;20030;-66
2024/01/30 08:12:17;;;;;;;8.60;4.55;;;5.80;99.90;;;;;;4981006;28;20030;-67
2024/01/30 08:14:43;;;;;;;8.80;3.88;;;5.80;99.90;;;;;;4979980;28;20193;-72
2024/01/30 08:17:09;;;;;;;8.00;4.05;;;5.80;99.90;;;;;;4977771;28;20137;-72
2024/01/30 08:19:34;;;;;;;8.13;4.05;;;5.80;99.90;;;;;;4981409;28;20573;-70
2024/01/30 08:22:00;;;;;;;9.90;3.70;;;5.90;99.90;;;;;;4977783;28;20113;-71
2024/01/30 08:24:26;;;;;;;7.53;3.35;;;5.90;99.90;;;;;;4979661;28;20041;-71
2024/01/30 08:26:52;;;;;;;5.32;3.08;;;6.00;99.90;;;;;;4978593;28;20041;-72
2024/01/30 08:29:18;;;;;;;7.43;3.63;;;6.00;99.90;;;;;;4979618;28;20045;-70
2024/01/30 08:31:45;;;;;;;7.63;3.28;;;6.10;99.90;;;;;;4981539;28;20065;-71
2024/01/30 08:34:11;;;;;;;8.15;3.55;;;6.20;99.90;;;;;;4968237;28;20039;-71
2024/01/30 08:36:37;;;;;;;6.75;3.42;;;6.30;99.90;;;;;;4948972;28;20351;-71
2024/01/30 08:39:03;;;;;;;6.78;3.60;;;6.40;99.90;;;;;;4955656;28;20034;-71
2024/01/30 08:41:28;;;;;;;7.07;4.13;;;6.50;99.90;;;;;;4949740;28;20027;-71
2024/01/30 08:43:54;;;;;;;9.63;3.88;;;6.60;99.90;;;;;;4951458;28;20061;-71
2024/01/30 08:46:20;;;;;;;6.65;3.67;;;6.60;99.60;;;;;;4952975;28;20038;-71
2024/01/30 08:48:47;;;;;;;6.50;3.03;;;6.70;99.50;;;;;;4948166;28;20028;-71
2024/01/30 08:51:14;;;;;;;6.00;3.78;;;6.80;99.50;;;;;;4952955;28;20039;-70
2024/01/30 08:53:40;;;;;;;8.10;3.63;;;6.90;99.60;;;;;;4952129;28;20043;-71
2024/01/30 08:56:06;;;;;;;8.55;3.92;;;7.00;99.30;;;;;;4946828;28;20034;-71
2024/01/30 08:58:32;;;;;;;7.55;4.15;;;7.10;99.50;;;;;;4950692;28;20049;-70
2024/01/30 09:00:58;;;;;;;8.07;4.00;;;7.20;99.30;;;;;;4948831;28;20054;-71
2024/01/30 09:03:24;;;;;;;5.78;3.50;;;7.30;98.90;;;;;;4951602;28;20085;-71
2024/01/30 09:05:50;;;;;;;8.60;3.72;;;7.40;98.70;;;;;;4952731;28;20038;-71
2024/01/30 09:08:16;;;;;;;5.57;3.55;;;7.40;98.70;;;;;;4951697;28;20055;-70
2024/01/30 09:10:42;;;;;;;6.55;4.10;;;7.50;98.10;;;;;;4947833;28;20036;-71
2024/01/30 09:13:08;;;;;;;6.68;4.18;;;7.50;97.80;;;;;;4948722;28;20475;-71
2024/01/30 09:15:34;;;;;;;6.55;3.67;;;7.60;97.80;;;;;;4952053;28;20041;-71
2024/01/30 09:17:59;;;;;;;6.88;4.05;;;7.70;97.70;;;;;;4951044;28;20039;-71
2024/01/30 09:20:25;;;;;;;7.93;3.95;;;7.80;97.80;;;;;;4955519;28;20027;-71
2024/01/30 09:22:51;;;;;;;10.38;4.50;;;8.00;97.50;;;;;;4956352;28;20033;-70
2024/01/30 09:25:18;;;;;;;6.82;3.83;;;8.10;96.90;;;;;;4953856;28;20103;-72
2024/01/30 09:27:44;;;;;;;8.85;4.22;;;8.20;96.30;;;;;;4957117;28;20119;-72
2024/01/30 09:30:10;;;;;;;8.98;4.20;;;8.40;96.20;;;;;;4955911;28;20035;-72
2024/01/30 09:32:36;;;;;;;7.00;3.90;;;8.70;95.30;;;;;;4955337;28;20023;-72
2024/01/30 09:35:01;;;;;;;9.98;4.68;;;9.10;94.60;;;;;;4954308;28;20737;-72
2024/01/30 09:37:27;;;;;;;10.25;3.65;;;9.50;93.40;;;;;;4953655;28;20034;-72
2024/01/30 09:39:53;;;;;;;6.72;3.78;;;9.90;92.20;;;;;;4951131;28;20146;-72
2024/01/30 09:42:35;;;;;;;9.13;3.70;;;10.00;92.20;;;;;;4953532;28;20031;-72
2024/01/30 09:45:03;;;;;;;9.73;3.88;;;10.40;90.80;;;;;;4951564;28;20031;-72
2024/01/30 09:47:38;;;;;;;19.25;4.03;;;10.50;89.60;;;;;;4955355;28;20571;-72
2024/01/30 09:50:05;;;;;;;6.87;3.73;;;10.40;89.20;;;;;;4951762;28;20561;-72
2024/01/30 09:52:31;;;;;;;6.40;3.38;;;10.20;89.30;;;;;;4954572;28;20027;-72
2024/01/30 09:55:00;;;;;;;7.93;3.60;;;10.10;88.20;;;;;;4955137;28;20553;-72
2024/01/30 09:57:26;;;;;;;5.90;3.35;;;10.10;88.70;;;;;;4952676;28;20031;-72
2024/01/30 09:59:53;;;;;;;10.35;3.83;;;10.20;87.80;;;;;;4956405;28;20038;-72
2024/01/30 10:02:20;;;;;;;6.50;3.30;;;10.30;86.50;;;;;;4953473;28;20034;-72
2024/01/30 10:04:50;;;;;;;8.32;3.40;;;10.40;86.30;;;;;;4954825;28;20028;-72
2024/01/30 10:07:19;;;;;;;9.25;3.80;;;10.70;85.20;;;;;;4954119;28;20034;-72
2024/01/30 10:09:45;;;;;;;6.80;3.40;;;11.10;84.30;;;;;;4951278;28;20023;-71
2024/01/30 10:12:12;;;;;;;12.07;3.88;;;11.20;82.80;;;;;;4955037;28;20031;-70
2024/01/30 10:14:42;;;;;;;8.82;3.35;;;11.30;80.90;;;;;;4956074;28;20042;-72
2024/01/30 10:17:09;;;;;;;10.18;3.65;;;11.20;79.80;;;;;;4953397;28;20080;-71
2024/01/30 10:19:40;;;;;;;7.00;3.92;;;11.00;81.80;;;;;;4954660;28;20407;-71
2024/01/30 10:22:06;;;;;;;5.38;3.25;;;10.90;81.40;;;;;;4953646;28;20505;-71
2024/01/30 10:24:33;;;;;;;8.13;3.85;;;10.60;81.30;;;;;;4954709;28;20023;-71
2024/01/30 10:26:59;;;;;;;6.72;3.38;;;10.50;82.50;;;;;;4955196;28;20701;-71
2024/01/30 10:29:25;;;;;;;8.63;4.20;;;10.40;82.30;;;;;;4950480;28;20042;-71
2024/01/30 10:32:06;;;;;;;6.90;3.58;;;10.50;81.00;;;;;;4951860;28;20041;-71
2024/01/30 10:34:33;;;;;;;6.55;3.80;;;10.30;81.70;;;;;;4951105;28;20039;-70
2024/01/30 10:37:15;;;;;;;9.20;3.70;;;10.10;83.10;;;;;;4954172;28;20131;-70
2024/01/30 10:39:41;;;;;;;9.80;3.80;;;9.80;83.20;;;;;;4946646;28;20507;-71
2024/01/30 10:42:13;;;;;;;7.03;3.92;;;9.90;83.80;;;;;;4947718;28;20039;-72
2024/01/30 10:44:57;;;;;;;8.40;3.80;;;10.10;82.70;;;;;;4953120;28;20038;-71
2024/01/30 10:47:27;;;;;;;7.22;3.83;;;10.20;81.40;;;;;;4952005;28;20058;-71
2024/01/30 10:49:54;;;;;;;6.53;3.58;;;10.00;82.60;;;;;;4955145;28;20051;-72
2024/01/30 10:52:20;;;;;;;7.63;4.03;;;10.30;83.30;;;;;;4954215;28;20078;-71
2024/01/30 10:54:47;;;;;;;8.80;4.03;;;10.50;81.70;;;;;;4953506;28;20031;-71
2024/01/30 10:57:15;;;;;;;7.53;3.75;;;10.50;80.80;;;;;;4951151;28;20727;-71
2024/01/30 10:59:42;;;;;;;9.93;4.25;;;10.40;80.80;;;;;;4953284;28;20038;-72
2024/01/30 11:02:10;;;;;;;5.70;3.60;;;10.70;80.90;;;;;;4955129;28;20039;-72
2024/01/30 11:04:37;;;;;;;8.77;3.83;;;10.90;79.70;;;;;;4953059;28;20045;-71
2024/01/30 11:07:13;;;;;;;7.25;3.90;;;11.30;78.60;;;;;;4953736;28;20410;-71
2024/01/30 11:09:39;;;;;;;;;;;11.50;77.20;;;;;;4955028;28;20407;-72
2024/01/30 11:12:05;;;;;;;9.30;4.87;;;11.50;77.40;;;;;;4954616;28;19917;-72
2024/01/30 11:14:30;;;;;;;7.85;3.15;;;11.20;78.30;;;;;;4954598;28;20114;-71
2024/01/30 11:16:59;;;;;;;6.93;3.67;;;11.00;77.90;;;;;;4952765;28;20101;-71
2024/01/30 11:19:26;;;;;;;6.03;3.83;;;10.70;78.90;;;;;;4950698;28;20031;-71
2024/01/30 11:21:56;;;;;;;7.88;4.07;;;10.20;80.60;;;;;;4951684;28;20077;-71
2024/01/30 11:24:23;;;;;;;8.20;4.03;;;9.90;82.00;;;;;;4947275;28;20582;-71
2024/01/30 11:26:59;;;;;;;8.85;3.60;;;9.70;83.10;;;;;;4954539;28;20415;-71
2024/01/30 11:29:25;;;;;;;8.20;3.78;;;9.70;84.10;;;;;;4949863;28;20106;-70
2024/01/30 11:31:58;;;;;;;6.80;3.67;;;9.70;84.20;;;;;;4953160;28;20790;-71
2024/01/30 11:34:24;;;;;;;6.85;3.58;;;9.70;83.70;;;;;;4954049;28;20098;-71
2024/01/30 11:37:01;;;;;;;7.68;3.90;;;9.70;85.30;;;;;;4951388;28;20558;-72
2024/01/30 11:39:26;;;;;;;;;;;9.70;83.60;;;;;;4950433;28;20043;-65
2024/01/30 11:41:53;;;;;;;8.20;3.87;;;9.80;84.80;;;;;;4952874;28;20557;-66
2024/01/30 11:44:22;;;;;;;9.50;4.35;;;9.90;84.90;;;;;;4950369;28;20450;-65
2024/01/30 11:46:50;;;;;;;7.32;4.28;;;9.80;85.00;;;;;;4951481;28;20047;-64
2024/01/30 11:49:19;;;;;;;8.25;4.03;;;9.60;84.60;;;;;;4946537;28;20059;-65
2024/01/30 11:51:49;;;;;;;7.82;3.63;;;9.60;85.80;;;;;;4953896;28;20064;-65
2024/01/30 11:54:17;;;;;;;8.00;3.80;;;9.50;86.10;;;;;;4952147;28;20488;-64
2024/01/30 11:56:43;;;;;;;6.65;3.67;;;9.60;85.90;;;;;;4951938;28;20042;-65
2024/01/30 11:59:09;;;;;;;8.60;3.92;;;9.70;85.50;;;;;;4951003;28;20035;-65
2024/01/30 12:01:36;;;;;;;9.38;3.53;;;9.60;85.20;;;;;;4949887;28;20026;-66
2024/01/30 12:04:02;;;;;;;6.38;4.07;;;9.70;86.20;;;;;;4952033;28;20031;-66
2024/01/30 12:06:28;;;;;;;7.53;3.88;;;9.70;86.20;;;;;;4953315;28;20044;-66
2024/01/30 12:09:04;;;;;;;11.98;4.20;;;9.80;85.60;;;;;;4949900;28;20031;-66
2024/01/30 12:11:30;;;;;;;6.80;3.93;;;10.00;86.60;;;;;;4952740;28;20403;-66
2024/01/30 12:13:56;;;;;;;9.88;4.53;;;10.10;86.20;;;;;;4949195;28;20353;-66
2024/01/30 12:16:22;;;;;;;7.15;3.85;;;10.20;85.80;;;;;;4952579;28;20498;-66
2024/01/30 12:18:48;;;;;;;7.22;3.60;;;10.30;85.50;;;;;;4951782;28;20038;-66
2024/01/30 12:21:18;;;;;;;5.70;3.30;;;10.40;85.70;;;;;;4950161;28;20039;-66
2024/01/30 12:23:44;;;;;;;9.75;4.13;;;10.10;86.50;;;;;;4951151;28;20043;-66
2024/01/30 12:26:11;;;;;;;7.30;3.92;;;10.10;87.50;;;;;;4949190;28;20031;-66
2024/01/30 12:28:37;;;;;;;8.48;3.95;;;10.20;86.10;;;;;;4953175;28;20078;-71
2024/01/30 12:31:03;;;;;;;9.13;4.28;;;10.20;86.70;;;;;;4948931;28;20439;-65
2024/01/30 12:33:30;;;;;;;8.98;4.03;;;10.20;86.20;;;;;;4949423;28;20027;-66
2024/01/30 12:35:56;;;;;;;7.43;3.75;;;10.10;86.00;;;;;;4947777;28;20094;-65
2024/01/30 12:38:24;;;;;;;8.60;3.80;;;10.10;87.60;;;;;;4948505;28;20126;-66
2024/01/30 12:40:59;;;;;;;10.02;4.22;;;10.00;87.60;;;;;;4951970;28;20031;-66
2024/01/30 12:43:25;;;;;;;7.68;4.03;;;10.00;87.80;;;;;;4951746;28;20034;-65
2024/01/30 12:45:53;;;;;;;9.02;4.10;;;10.10;88.00;;;;;;4949508;28;20708;-66
2024/01/30 12:48:18;;;;;;;5.75;3.90;;;10.10;87.70;;;;;;4945721;28;20062;-66
2024/01/30 12:50:44;;;;;;;8.07;4.20;;;10.10;86.80;;;;;;4949431;28;20132;-66
2024/01/30 12:53:11;;;;;;;7.05;3.92;;;10.10;87.80;;;;;;4953584;28;20030;-65